createdAt,value
2022-08-26T00:00:21.335Z,23.00
2022-08-26T00:02:49.604Z,22.90
2022-08-26T00:05:18.185Z,23.00
2022-08-26T00:07:47.431Z,22.90
2022-08-26T00:10:16.024Z,22.90
2022-08-26T00:12:46.161Z,22.80
2022-08-26T00:15:18.955Z,22.70
2022-08-26T00:17:51.684Z,22.80
2022-08-26T00:20:28.582Z,22.70
2022-08-26T00:22:57.373Z,22.70
2022-08-26T00:25:27.755Z,22.70
2022-08-26T00:27:55.989Z,22.60
2022-08-26T00:30:28.446Z,22.60
2022-08-26T00:32:59.716Z,22.70
2022-08-26T00:35:29.745Z,22.70
2022-08-26T00:38:03.348Z,22.70
2022-08-26T00:40:35.858Z,22.50
2022-08-26T00:43:09.321Z,22.60
2022-08-26T00:45:45.310Z,22.50
2022-08-26T00:48:18.953Z,22.50
2022-08-26T00:50:55.745Z,22.60
2022-08-26T00:53:28.050Z,22.60
2022-08-26T00:56:02.514Z,22.60
2022-08-26T00:58:34.087Z,22.50
2022-08-26T01:01:02.807Z,22.50
2022-08-26T01:03:35.649Z,22.50
2022-08-26T01:06:06.615Z,22.50
2022-08-26T01:08:41.511Z,22.40
2022-08-26T01:11:10.867Z,22.40
2022-08-26T01:13:40.316Z,22.50
2022-08-26T01:16:15.592Z,22.50
2022-08-26T01:18:46.784Z,22.50
2022-08-26T01:21:27.163Z,22.60
2022-08-26T01:23:59.246Z,22.50
2022-08-26T01:26:33.265Z,22.40
2022-08-26T01:29:06.333Z,22.40
2022-08-26T01:31:42.318Z,22.30
2022-08-26T01:34:20.925Z,22.40
2022-08-26T01:36:51.522Z,22.40
2022-08-26T01:39:21.988Z,22.30
2022-08-26T01:41:54.344Z,22.40
2022-08-26T01:44:29.165Z,22.40
2022-08-26T01:47:00.314Z,22.40
2022-08-26T01:49:31.978Z,22.30
2022-08-26T01:52:06.233Z,22.20
2022-08-26T01:54:36.879Z,22.30
2022-08-26T01:57:07.250Z,22.30
2022-08-26T01:59:36.372Z,22.30
2022-08-26T02:02:04.890Z,22.20
2022-08-26T02:04:40.867Z,22.20
2022-08-26T02:07:11.378Z,22.30
2022-08-26T02:09:43.114Z,22.30
2022-08-26T02:12:14.158Z,22.20
2022-08-26T02:14:53.220Z,22.20
2022-08-26T02:17:27.366Z,22.10
2022-08-26T02:19:57.168Z,22.10
2022-08-26T02:22:26.269Z,22.10
2022-08-26T02:25:00.494Z,22.10
2022-08-26T02:27:34.907Z,22.10
2022-08-26T02:30:12.962Z,22.00
2022-08-26T02:32:42.002Z,21.90
2022-08-26T02:35:20.053Z,21.90
2022-08-26T02:37:49.502Z,21.80
2022-08-26T02:40:27.120Z,21.90
2022-08-26T02:42:56.023Z,21.90
2022-08-26T02:45:27.493Z,21.90
2022-08-26T02:47:58.108Z,21.90
2022-08-26T02:50:28.787Z,21.90
2022-08-26T02:52:56.961Z,21.80
2022-08-26T02:55:27.310Z,21.80
2022-08-26T02:57:55.904Z,21.80
2022-08-26T03:00:24.770Z,21.70
2022-08-26T03:02:54.419Z,21.60
2022-08-26T03:05:24.781Z,21.60
2022-08-26T03:07:53.408Z,21.70
2022-08-26T03:10:23.143Z,21.70
2022-08-26T03:12:55.567Z,21.80
2022-08-26T03:15:24.510Z,21.70
2022-08-26T03:17:52.848Z,21.50
2022-08-26T03:20:21.332Z,21.60
2022-08-26T03:22:51.375Z,21.60
2022-08-26T03:25:21.882Z,21.60
2022-08-26T03:27:52.099Z,21.50
2022-08-26T03:30:39.133Z,21.50
2022-08-26T03:33:15.613Z,21.40
2022-08-26T03:35:47.299Z,21.40
2022-08-26T03:38:16.414Z,21.50
2022-08-26T03:40:45.397Z,21.70
2022-08-26T03:43:15.917Z,21.70
2022-08-26T03:45:46.104Z,21.80
2022-08-26T03:48:15.291Z,21.70
2022-08-26T03:50:43.829Z,21.70
2022-08-26T03:53:13.270Z,21.60
2022-08-26T03:55:43.112Z,21.70
2022-08-26T03:58:12.115Z,21.60
2022-08-26T04:00:40.517Z,21.70
2022-08-26T04:03:15.653Z,21.70
2022-08-26T04:05:46.358Z,21.60
2022-08-26T04:08:14.876Z,21.80
2022-08-26T04:10:43.475Z,21.80
2022-08-26T04:13:12.259Z,21.90
2022-08-26T04:15:40.743Z,21.90
2022-08-26T04:18:10.591Z,21.90
2022-08-26T04:20:39.136Z,21.90
2022-08-26T04:23:07.628Z,21.90
2022-08-26T04:25:36.258Z,21.80
2022-08-26T04:28:04.926Z,21.80
2022-08-26T04:30:33.526Z,21.80
2022-08-26T04:33:04.483Z,21.90
2022-08-26T04:35:44.120Z,21.80
2022-08-26T04:38:12.540Z,22.00
2022-08-26T04:40:46.721Z,22.00
2022-08-26T04:43:15.591Z,21.90
2022-08-26T04:45:44.412Z,21.80
2022-08-26T04:48:12.634Z,21.80
2022-08-26T04:50:49.471Z,21.80
2022-08-26T04:53:17.925Z,21.90
2022-08-26T04:55:46.453Z,21.90
2022-08-26T04:58:18.420Z,21.90
2022-08-26T05:00:48.651Z,21.90
2022-08-26T05:03:18.227Z,22.00
2022-08-26T05:05:50.751Z,22.00
2022-08-26T05:08:21.451Z,22.00
2022-08-26T05:10:55.880Z,22.00
2022-08-26T05:13:28.345Z,22.00
2022-08-26T05:16:01.259Z,22.10
2022-08-26T05:18:29.941Z,22.20
2022-08-26T05:20:59.578Z,22.30
2022-08-26T05:23:28.574Z,22.30
2022-08-26T05:25:59.318Z,22.30
2022-08-26T05:28:30.783Z,22.40
2022-08-26T05:30:59.142Z,22.50
2022-08-26T05:33:29.297Z,22.50
2022-08-26T05:35:58.893Z,22.50
2022-08-26T05:38:30.467Z,22.50
2022-08-26T05:40:58.941Z,22.50
2022-08-26T05:43:29.047Z,22.50
2022-08-26T05:46:07.689Z,22.60
2022-08-26T05:48:36.045Z,22.60
2022-08-26T05:51:09.318Z,22.50
2022-08-26T05:53:40.024Z,22.50
2022-08-26T05:56:13.544Z,22.60
2022-08-26T05:58:43.722Z,22.50
2022-08-26T06:01:17.168Z,22.60
2022-08-26T06:03:49.998Z,22.70
2022-08-26T06:06:27.410Z,22.70
2022-08-26T06:08:59.106Z,22.90
2022-08-26T06:11:30.497Z,23.00
2022-08-26T06:14:04.041Z,23.10
2022-08-26T06:16:36.257Z,23.10
2022-08-26T06:19:11.053Z,23.20
2022-08-26T06:21:43.576Z,23.20
2022-08-26T06:24:32.261Z,23.20
2022-08-26T06:27:04.186Z,23.30
2022-08-26T06:29:34.837Z,23.30
2022-08-26T06:32:06.119Z,23.40
2022-08-26T06:34:34.499Z,23.40
2022-08-26T06:37:06.497Z,23.50
2022-08-26T06:39:35.219Z,23.40
2022-08-26T06:42:08.693Z,23.30
2022-08-26T06:44:39.149Z,23.40
2022-08-26T06:47:09.499Z,23.40
2022-08-26T06:49:38.117Z,23.30
2022-08-26T06:52:09.498Z,23.30
2022-08-26T06:54:43.001Z,23.40
2022-08-26T06:57:11.365Z,23.40
2022-08-26T06:59:40.021Z,23.40
2022-08-26T07:02:09.153Z,23.60
2022-08-26T07:04:42.122Z,23.70
2022-08-26T07:07:15.237Z,23.80
2022-08-26T07:09:43.485Z,23.90
2022-08-26T07:12:11.825Z,24.00
2022-08-26T07:14:40.035Z,24.10
2022-08-26T07:17:13.929Z,24.10
2022-08-26T07:19:43.123Z,24.20
2022-08-26T07:22:12.826Z,24.30
2022-08-26T07:24:42.315Z,24.40
2022-08-26T07:27:15.673Z,24.50
2022-08-26T07:29:44.830Z,24.50
2022-08-26T07:32:16.001Z,24.60
2022-08-26T07:34:44.855Z,24.70
2022-08-26T07:37:14.597Z,24.70
2022-08-26T07:39:44.303Z,24.80
2022-08-26T07:42:17.013Z,24.90
2022-08-26T07:44:47.007Z,24.90
2022-08-26T07:47:25.494Z,25.00
2022-08-26T07:49:57.399Z,25.10
2022-08-26T07:52:30.300Z,25.20
2022-08-26T07:55:01.502Z,25.30
2022-08-26T07:57:31.129Z,25.30
2022-08-26T07:59:59.934Z,25.30
2022-08-26T08:02:30.648Z,25.20
2022-08-26T08:04:59.567Z,25.10
2022-08-26T08:07:44.590Z,25.00
2022-08-26T08:10:16.628Z,24.90
2022-08-26T08:12:45.933Z,24.90
2022-08-26T08:15:16.053Z,25.00
2022-08-26T08:17:45.155Z,25.00
2022-08-26T08:20:15.384Z,25.20
2022-08-26T08:22:45.222Z,25.30
2022-08-26T08:25:16.798Z,25.30
2022-08-26T08:27:46.349Z,25.30
2022-08-26T08:30:22.613Z,25.40
2022-08-26T08:32:52.023Z,25.40
2022-08-26T08:35:23.522Z,25.60
2022-08-26T08:37:55.367Z,25.60
2022-08-26T08:40:27.125Z,25.60
2022-08-26T08:43:03.648Z,25.50
2022-08-26T08:45:37.846Z,25.50
2022-08-26T08:48:21.145Z,25.50
2022-08-26T08:51:06.901Z,25.50
2022-08-26T08:53:43.186Z,25.60
2022-08-26T08:56:23.582Z,25.50
2022-08-26T08:58:57.861Z,25.40
2022-08-26T09:01:42.376Z,25.30
2022-08-26T09:04:44.770Z,25.30
2022-08-26T09:07:19.025Z,25.30
2022-08-26T09:09:55.386Z,25.20
2022-08-26T09:12:29.249Z,25.30
2022-08-26T09:15:04.358Z,25.50
2022-08-26T09:17:49.228Z,25.70
2022-08-26T09:20:26.483Z,26.00
2022-08-26T09:22:56.389Z,26.20
2022-08-26T09:25:26.824Z,26.30
2022-08-26T09:27:55.322Z,26.00
2022-08-26T09:30:29.343Z,26.00
2022-08-26T09:33:06.590Z,25.80
2022-08-26T09:35:42.881Z,25.60
2022-08-26T09:38:26.752Z,25.50
2022-08-26T09:41:01.900Z,25.60
2022-08-26T09:43:30.671Z,25.50
2022-08-26T09:46:18.744Z,25.50
2022-08-26T09:48:47.256Z,25.60
2022-08-26T09:51:32.494Z,25.60
2022-08-26T09:54:05.618Z,25.70
2022-08-26T09:56:40.211Z,25.70
2022-08-26T09:59:11.935Z,25.60
2022-08-26T10:01:42.941Z,25.70
2022-08-26T10:04:15.937Z,25.80
2022-08-26T10:06:57.882Z,25.80
2022-08-26T10:09:28.135Z,25.90
2022-08-26T10:12:05.352Z,25.90
2022-08-26T10:14:39.709Z,26.00
2022-08-26T10:17:17.523Z,25.90
2022-08-26T10:19:56.830Z,25.90
2022-08-26T10:22:43.511Z,25.80
2022-08-26T10:25:18.240Z,25.80
2022-08-26T10:28:00.371Z,25.90
2022-08-26T10:30:35.526Z,26.00
2022-08-26T10:33:10.608Z,26.10
2022-08-26T10:35:51.670Z,26.10
2022-08-26T10:38:28.800Z,26.10
2022-08-26T10:41:09.728Z,26.10
2022-08-26T10:43:47.950Z,26.00
2022-08-26T10:46:27.059Z,26.00
2022-08-26T10:49:06.723Z,25.90
2022-08-26T10:51:42.204Z,25.90
2022-08-26T10:54:21.519Z,25.90
2022-08-26T10:57:01.087Z,25.90
2022-08-26T10:59:53.031Z,25.90
2022-08-26T11:02:34.578Z,26.00
2022-08-26T11:05:06.332Z,25.90
2022-08-26T11:07:40.493Z,25.90
2022-08-26T11:10:33.146Z,26.00
2022-08-26T11:13:04.562Z,26.00
2022-08-26T11:16:02.581Z,26.10
2022-08-26T11:18:46.154Z,26.10
2022-08-26T11:21:50.715Z,26.10
2022-08-26T11:24:46.888Z,26.10
2022-08-26T11:28:06.265Z,26.00
2022-08-26T11:30:56.932Z,25.90
2022-08-26T11:33:57.838Z,25.80
2022-08-26T11:36:57.032Z,26.20
2022-08-26T11:39:31.951Z,26.30
2022-08-26T11:42:24.572Z,26.60
2022-08-26T11:44:58.331Z,26.90
2022-08-26T11:47:30.444Z,27.10
2022-08-26T11:50:15.186Z,27.00
2022-08-26T11:52:54.269Z,27.10
2022-08-26T11:55:24.135Z,27.20
2022-08-26T11:58:00.687Z,27.30
2022-08-26T12:00:34.572Z,27.50
2022-08-26T12:03:08.890Z,27.50
2022-08-26T12:05:45.950Z,27.60
2022-08-26T12:08:19.058Z,27.50
2022-08-26T12:10:48.262Z,27.50
2022-08-26T12:13:24.194Z,27.40
2022-08-26T12:15:57.677Z,27.40
2022-08-26T12:18:30.638Z,27.20
2022-08-26T12:21:15.901Z,27.20
2022-08-26T12:23:48.039Z,27.10
2022-08-26T12:26:28.157Z,27.10
2022-08-26T12:29:00.516Z,27.00
2022-08-26T12:31:35.884Z,27.10
2022-08-26T12:34:17.573Z,27.20
2022-08-26T12:36:51.496Z,27.30
2022-08-26T12:39:29.254Z,27.50
2022-08-26T12:41:59.946Z,27.70
2022-08-26T12:44:53.131Z,27.80
2022-08-26T12:47:30.843Z,27.90
2022-08-26T12:50:19.102Z,27.90
2022-08-26T12:53:00.716Z,28.00
2022-08-26T12:55:40.544Z,28.00
2022-08-26T12:58:24.770Z,28.00
2022-08-26T13:00:55.860Z,27.80
2022-08-26T13:03:48.476Z,27.70
2022-08-26T13:06:27.914Z,27.70
2022-08-26T13:09:00.362Z,27.60
2022-08-26T13:11:33.073Z,27.50
2022-08-26T13:14:06.926Z,27.50
2022-08-26T13:16:37.287Z,27.40
2022-08-26T13:19:10.340Z,27.50
2022-08-26T13:21:47.729Z,27.40
2022-08-26T13:24:26.918Z,27.40
2022-08-26T13:26:56.347Z,27.30
2022-08-26T13:29:24.588Z,27.20
2022-08-26T13:31:53.564Z,27.00
2022-08-26T13:34:24.602Z,27.00
2022-08-26T13:36:56.269Z,27.00
2022-08-26T13:39:27.234Z,27.00
2022-08-26T13:41:56.012Z,27.00
2022-08-26T13:44:24.795Z,26.90
2022-08-26T13:46:53.666Z,26.90
2022-08-26T13:49:22.263Z,26.90
2022-08-26T13:51:50.672Z,26.90
2022-08-26T13:54:19.516Z,26.80
2022-08-26T13:56:49.139Z,26.80
2022-08-26T13:59:17.437Z,26.80
2022-08-26T14:01:45.811Z,26.80
2022-08-26T14:04:14.250Z,26.90
2022-08-26T14:06:42.553Z,26.90
2022-08-26T14:09:11.429Z,26.90
2022-08-26T14:11:50.586Z,26.90
2022-08-26T14:14:25.101Z,27.00
2022-08-26T14:16:59.558Z,26.90
2022-08-26T14:19:30.579Z,26.90
2022-08-26T14:22:00.666Z,27.00
2022-08-26T14:24:29.351Z,27.00
2022-08-26T14:26:57.755Z,27.10
2022-08-26T14:29:27.430Z,27.10
2022-08-26T14:31:58.821Z,27.20
2022-08-26T14:34:27.380Z,27.30
2022-08-26T14:36:55.694Z,27.50
2022-08-26T14:39:24.078Z,27.60
2022-08-26T14:41:57.648Z,27.80
2022-08-26T14:44:32.288Z,27.90
2022-08-26T14:47:03.652Z,28.00
2022-08-26T14:49:32.137Z,28.00
2022-08-26T14:52:00.955Z,28.00
2022-08-26T14:54:29.438Z,28.10
2022-08-26T14:57:03.587Z,28.20
2022-08-26T14:59:36.966Z,28.30
2022-08-26T15:02:06.224Z,28.40
2022-08-26T15:04:35.389Z,28.40
2022-08-26T15:07:04.876Z,28.40
2022-08-26T15:09:36.796Z,28.40
2022-08-26T15:12:06.547Z,28.50
2022-08-26T15:14:36.148Z,28.50
2022-08-26T15:17:04.628Z,28.40
2022-08-26T15:19:32.935Z,28.10
2022-08-26T15:22:01.175Z,27.90
2022-08-26T15:24:29.961Z,27.80
2022-08-26T15:26:58.956Z,27.70
2022-08-26T15:29:27.316Z,27.50
2022-08-26T15:31:57.640Z,27.50
2022-08-26T15:34:26.868Z,27.50
2022-08-26T15:36:55.574Z,27.50
2022-08-26T15:39:24.351Z,27.40
2022-08-26T15:41:52.858Z,27.20
2022-08-26T15:44:21.308Z,27.20
2022-08-26T15:46:55.312Z,27.20
2022-08-26T15:49:28.500Z,27.10
2022-08-26T15:51:56.966Z,26.90
2022-08-26T15:54:25.579Z,26.70
2022-08-26T15:56:54.050Z,26.60
2022-08-26T15:59:23.488Z,26.40
2022-08-26T16:01:52.386Z,26.30
2022-08-26T16:04:21.398Z,26.30
2022-08-26T16:06:52.205Z,26.40
2022-08-26T16:09:24.320Z,26.40
2022-08-26T16:11:52.922Z,26.10
2022-08-26T16:14:21.361Z,26.20
2022-08-26T16:16:50.488Z,26.10
2022-08-26T16:19:19.184Z,26.10
2022-08-26T16:21:48.038Z,26.00
2022-08-26T16:24:18.441Z,26.00
2022-08-26T16:26:46.749Z,25.90
2022-08-26T16:29:17.944Z,26.00
2022-08-26T16:31:47.573Z,26.00
2022-08-26T16:34:15.718Z,26.00
2022-08-26T16:36:43.963Z,26.10
2022-08-26T16:39:12.261Z,26.10
2022-08-26T16:41:42.103Z,26.10
2022-08-26T16:44:11.867Z,26.20
2022-08-26T16:46:41.145Z,26.30
2022-08-26T16:49:09.601Z,26.20
2022-08-26T16:51:38.576Z,26.20
2022-08-26T16:54:09.333Z,26.30
2022-08-26T16:56:38.812Z,26.20
2022-08-26T16:59:11.445Z,26.00
2022-08-26T17:01:39.859Z,25.80
2022-08-26T17:04:08.208Z,25.60
2022-08-26T17:06:36.780Z,25.40
2022-08-26T17:09:05.275Z,25.20
2022-08-26T17:11:33.684Z,24.80
2022-08-26T17:14:02.894Z,24.10
2022-08-26T17:16:33.309Z,23.70
2022-08-26T17:19:02.822Z,23.20
2022-08-26T17:21:33.304Z,22.90
2022-08-26T17:24:02.056Z,22.70
2022-08-26T17:26:30.885Z,22.50
2022-08-26T17:28:59.971Z,22.40
2022-08-26T17:31:28.339Z,22.20
2022-08-26T17:33:58.016Z,22.20
2022-08-26T17:36:27.453Z,22.10
2022-08-26T17:38:58.527Z,22.10
2022-08-26T17:41:28.508Z,22.10
2022-08-26T17:43:57.083Z,22.10
2022-08-26T17:46:26.020Z,22.00
2022-08-26T17:48:54.448Z,22.10
2022-08-26T17:51:25.230Z,22.20
2022-08-26T17:53:53.881Z,22.20
2022-08-26T17:56:26.795Z,22.10
2022-08-26T17:59:02.242Z,22.00
2022-08-26T18:01:30.891Z,21.90
2022-08-26T18:04:00.621Z,21.80
2022-08-26T18:06:31.824Z,21.80
2022-08-26T18:09:00.652Z,21.80
2022-08-26T18:11:30.145Z,21.90
2022-08-26T18:13:59.224Z,21.80
2022-08-26T18:16:29.852Z,21.80
2022-08-26T18:18:59.128Z,22.00
2022-08-26T18:21:30.182Z,22.10
2022-08-26T18:23:59.030Z,22.20
2022-08-26T18:26:32.712Z,22.20
2022-08-26T18:29:01.893Z,22.30
2022-08-26T18:31:31.234Z,22.30
2022-08-26T18:34:01.871Z,22.40
2022-08-26T18:36:34.482Z,22.40
2022-08-26T18:39:04.949Z,22.50
2022-08-26T18:41:39.238Z,22.60
2022-08-26T18:44:12.948Z,22.50
2022-08-26T18:46:43.546Z,22.50
2022-08-26T18:49:13.344Z,22.40
2022-08-26T18:51:44.786Z,22.60
2022-08-26T18:54:13.773Z,22.40
2022-08-26T18:56:43.672Z,22.40
2022-08-26T18:59:14.192Z,22.40
2022-08-26T19:01:43.558Z,22.40
2022-08-26T19:04:15.425Z,22.30
2022-08-26T19:06:48.874Z,22.30
2022-08-26T19:09:18.222Z,22.40
2022-08-26T19:11:48.017Z,22.40
2022-08-26T19:14:18.631Z,22.40
2022-08-26T19:16:50.027Z,22.30
2022-08-26T19:19:18.349Z,22.20
2022-08-26T19:21:48.355Z,22.20
2022-08-26T19:24:18.560Z,22.20
2022-08-26T19:26:57.605Z,22.20
2022-08-26T19:29:30.642Z,22.10
2022-08-26T19:31:59.711Z,22.20
2022-08-26T19:34:28.180Z,22.10
2022-08-26T19:36:58.456Z,22.10
2022-08-26T19:39:27.367Z,22.10
2022-08-26T19:41:55.819Z,22.10
2022-08-26T19:44:42.226Z,22.20
2022-08-26T19:47:15.553Z,22.20
2022-08-26T19:49:43.820Z,22.20
2022-08-26T19:52:13.857Z,22.20
2022-08-26T19:54:42.383Z,22.20
2022-08-26T19:57:11.157Z,22.10
2022-08-26T19:59:40.222Z,22.10
2022-08-26T20:02:11.073Z,22.10
2022-08-26T20:04:40.744Z,22.10
2022-08-26T20:07:12.028Z,22.10
2022-08-26T20:09:42.741Z,22.00
2022-08-26T20:12:11.531Z,22.00
2022-08-26T20:14:39.729Z,22.10
2022-08-26T20:17:08.265Z,22.10
2022-08-26T20:19:54.234Z,22.10
2022-08-26T20:22:23.494Z,22.00
2022-08-26T20:24:53.152Z,22.00
2022-08-26T20:27:27.422Z,22.00
2022-08-26T20:30:10.024Z,22.00
2022-08-26T20:32:39.356Z,22.00
2022-08-26T20:35:11.860Z,21.90
2022-08-26T20:37:41.863Z,22.00
2022-08-26T20:40:15.303Z,21.90
2022-08-26T20:42:43.638Z,22.00
2022-08-26T20:45:12.443Z,21.90
2022-08-26T20:47:41.669Z,21.90
2022-08-26T20:50:10.677Z,21.90
2022-08-26T20:52:38.917Z,21.90
2022-08-26T20:55:08.392Z,22.10
2022-08-26T20:57:38.220Z,22.00
2022-08-26T21:00:08.119Z,21.90
2022-08-26T21:02:36.985Z,21.80
2022-08-26T21:05:06.710Z,21.80
2022-08-26T21:07:35.913Z,21.80
2022-08-26T21:10:04.754Z,21.80
2022-08-26T21:12:32.984Z,21.80
2022-08-26T21:15:02.739Z,21.70
2022-08-26T21:17:31.293Z,21.80
2022-08-26T21:19:59.661Z,21.80
2022-08-26T21:22:28.377Z,21.80
2022-08-26T21:24:56.587Z,21.90
2022-08-26T21:27:26.456Z,21.90
2022-08-26T21:29:55.354Z,21.80
2022-08-26T21:32:25.061Z,21.80
2022-08-26T21:34:56.841Z,21.70
2022-08-26T21:37:26.115Z,21.70
2022-08-26T21:39:55.229Z,21.60
2022-08-26T21:42:25.306Z,21.50
2022-08-26T21:44:54.704Z,21.70
2022-08-26T21:47:25.477Z,21.70
2022-08-26T21:49:54.354Z,21.70
2022-08-26T21:52:22.634Z,21.60
2022-08-26T21:54:51.015Z,21.60
2022-08-26T21:57:19.483Z,21.60
2022-08-26T21:59:47.927Z,21.50
2022-08-26T22:02:16.182Z,21.60
2022-08-26T22:04:48.836Z,21.50
2022-08-26T22:07:19.075Z,21.40
2022-08-26T22:09:49.656Z,21.50
2022-08-26T22:12:19.099Z,21.60
2022-08-26T22:14:47.916Z,21.70
2022-08-26T22:17:16.997Z,21.70
2022-08-26T22:19:46.884Z,21.60
2022-08-26T22:22:15.595Z,21.60
2022-08-26T22:24:44.287Z,21.60
2022-08-26T22:27:13.161Z,21.60
2022-08-26T22:29:41.603Z,21.60
2022-08-26T22:32:10.052Z,21.60
2022-08-26T22:34:38.392Z,21.50
2022-08-26T22:37:08.495Z,21.50
2022-08-26T22:39:36.994Z,21.40
2022-08-26T22:42:07.140Z,21.50
2022-08-26T22:44:36.906Z,21.40
2022-08-26T22:47:05.353Z,21.40
2022-08-26T22:49:33.577Z,21.40
2022-08-26T22:52:01.875Z,21.40
2022-08-26T22:54:31.461Z,21.30
2022-08-26T22:56:59.895Z,21.30
2022-08-26T22:59:28.113Z,21.10
2022-08-26T23:01:56.522Z,21.10
2022-08-26T23:04:24.935Z,21.20
2022-08-26T23:06:53.327Z,21.10
2022-08-26T23:09:22.104Z,21.10
2022-08-26T23:11:51.988Z,21.20
2022-08-26T23:14:20.363Z,21.20
2022-08-26T23:16:49.244Z,21.10
2022-08-26T23:19:21.263Z,21.10
2022-08-26T23:21:50.671Z,21.10
2022-08-26T23:24:19.370Z,21.10
2022-08-26T23:26:47.889Z,21.10
2022-08-26T23:29:17.634Z,21.10
2022-08-26T23:31:46.125Z,21.00
2022-08-26T23:34:32.005Z,21.10
2022-08-26T23:37:01.403Z,21.10
2022-08-26T23:39:32.052Z,21.20
2022-08-26T23:42:01.645Z,21.20
2022-08-26T23:44:32.534Z,21.20
2022-08-26T23:47:01.117Z,21.10
2022-08-26T23:49:29.983Z,21.10
2022-08-26T23:52:16.123Z,21.10
2022-08-26T23:54:44.566Z,21.00
2022-08-26T23:57:12.890Z,21.00
2022-08-26T23:59:45.538Z,20.90
